Tiempo atmosférico en la estación meteorológica de Escorca, Lluc, Illes Balears (490 m.)



Fecha
DESCASC
Temp. máxima en grados centígrados (hora)
DESCASC
Temp. mínima en grados centígrados (hora)
DESCASC
Temp. media en grados centígrados
DESCASC
Racha de viento máxima en m/sg (hora)
DESCASC
Velocidad máxima media en intervalos de 10 minutos(hora)
DESCASC
Precipitaciones diarias en mm
DESCASC
Precipitaciones de 00:00 a 06:00 en mm
DESCASC
Precipitaciones de 06:00 a 12:00 en mm
DESCASC
Precipitaciones de 12:00 a 18:00 en mm
DESCASC
Precipitaciones de 18:00 a 24:00 en mm
DESCASC
18-01-2018 11.6 (12:20) 1.9 (22:50) 6.8 5.28 (07:10) 2.22 (07:10) 0 0 0 0 0
17-01-2018 14 (00:10) 6.1 (19:00) 10 15.28 (06:30) 3.61 (08:00) 0 0 0 0 0
16-01-2018 16.5 (13:20) -0.3 (00:20) 8.1 10 (22:30) 1.94 (23:30) 0 0 0 0 0
15-01-2018 11 (11:50) -0.7 (23:10) 5.2 5 (14:00) 1.67 (15:50) 0 0 0 0 0
14-01-2018 8.8 (14:40) 2.9 (00:00) 5.9 11.39 (00:10) 4.72 (00:10) 0.4 0.4 0 0 0
13-01-2018 10.6 (13:30) -2.1 (-00:0) 4.3 10.28 (23:50) 3.89 (23:40) 0 0 0 0 0
12-01-2018 12.6 (12:00) 0.3 (00:00) 6.5 7.22 (17:00) 1.67 (02:10) 0 0 0 0 0
11-01-2018 8.9 (11:50) 3.6 (00:00) 6.2 12.5 (06:00) 2.78 (06:30) 2.1 1.8 0.3 0 0
10-01-2018 11 (11:50) 3.4 (00:00) 7.2 12.78 (00:20) 3.89 (00:10) 0.1 0 0.1 0 0
09-01-2018 13.4 (13:50) 1.4 (00:00) 7.4 14.72 (23:30) 5.28 (23:40) 0 0 0 0 0
08-01-2018 7.4 (14:10) 0 (00:00) 3.7 9.72 (16:40) 1.94 (15:30) 9.4 0 1.9 7.5 0
07-01-2018 11.2 (00:10) 1 (00:00) 6.1 14.72 (02:10) 4.72 (02:10) 13.1 0 12.7 0.4 0
06-01-2018 13.3 (13:50) 3.9 (00:00) 8.6 10.56 (19:30) 3.33 (10:10) 0 0 0 0 0
05-01-2018 16.7 (13:50) 3 (00:00) 9.9 10.56 (13:20) 3.06 (13:20) 0 0 0 0 0
04-01-2018 18 (11:20) 4.9 (23:50) 11.5 13.89 (10:50) 2.78 (08:40) 0 0 0 0 0
03-01-2018 18.4 (14:00) 13 (00:00) 15.7 13.33 (18:30) 2.78 (17:30) 0 0 0 0 0
02-01-2018 14.9 (14:30) 10.1 (00:00) 12.5 15.56 (00:50) 3.89 (01:20) 0 0 0 0 0
01-01-2018 13.5 (14:20) 8.1 (00:00) 10.8 14.72 (05:00) 3.89 (16:10) 0 0 0 0 0
31-12-2017 17.7 (13:40) 1.8 (00:00) 9.8 10 (22:20) 2.5 (23:20) 0 0 0 0 0
30-12-2017 16.9 (14:10) 3.7 (00:00) 10.3 9.72 (08:30) 1.67 (10:10) 0 0 0 0 0
29-12-2017 13.5 (13:50) 6.5 (00:00) 10 9.72 (17:00) 2.22 (16:40) 0 0 0 0 0
28-12-2017 12.3 (13:20) 6.9 (00:00) 9.6 13.61 (00:10) 3.06 (01:00) 0 0 0 0 0
27-12-2017 -- (--) -- (--) -- 17.22 (14:20) 5.28 (05:10) 7.1 2.6 4.4 0.1 0
26-12-2017 12.3 (11:50) 4.7 (00:00) 8.5 7.78 (03:00) 2.78 (03:10) 1 0 0 1 0
25-12-2017 12.9 (14:40) 1.3 (00:00) 7.1 9.72 (10:10) 3.06 (10:10) 0 0 0 0 0
24-12-2017 14.3 (13:10) 1.4 (00:00) 7.9 2.78 (00:50) 1.39 (14:40) 0 0 0 0 0

Gráficas

Temp. máximas Temp. mínimas Temp. medias Precipitaciones Rachas de viento máximas Velocidades máximas media en intervalos de 10 minutos

Datos horarios

Fecha y hora oficial Temperatura (ºC) Velocidad del viento (km/h) Dirección del viento Racha (km/h) Dirección de racha Precipitación (mm) Presión (hPa) Tendencia (hPa) Humedad (%)
2018-01-22 23:00:00 10.4 0 Calma 17 Este 0 -- -- 59
2018-01-22 22:00:00 10.8 2 Sur 24 Norte 0 -- -- 57
2018-01-22 21:00:00 11.8 3 Sur 14 Sudeste 0 -- -- 53
2018-01-22 20:00:00 7.6 0 Calma 10 Oeste 0 -- -- 76
2018-01-22 19:00:00 7.3 0 Calma 9 Sur 0 -- -- 79
2018-01-22 18:00:00 9 0 Calma 0 Calma 0 -- -- 70
2018-01-22 17:00:00 11.1 0 Calma 2 Sur 0 -- -- 59
2018-01-22 16:00:00 14.5 0 Calma 15 Sudeste 0 -- -- 46
2018-01-22 15:00:00 17.2 3 Sur 22 Sur 0 -- -- 41
2018-01-22 14:00:00 16.2 2 Este 15 Este 0 -- -- 51
2018-01-22 13:00:00 15.3 3 Sudeste 25 Sudeste 0 -- -- 52
2018-01-22 12:00:00 15.4 3 Sudeste 30 Este 0 -- -- 51
2018-01-22 11:00:00 14.1 7 Este 27 Nordeste 0 -- -- 54
2018-01-22 10:00:00 12.5 5 Este 24 Norte 0 -- -- 61
2018-01-22 09:00:00 11.9 4 Sudeste 27 Sudeste 0 -- -- 63
2018-01-22 08:00:00 11.7 4 Sur 36 Sur 0 -- -- 63
2018-01-22 07:00:00 11.7 7 Sur 33 Sudoeste 0 -- -- 65
2018-01-22 06:00:00 11.5 6 Sur 32 Sur 0 -- -- 68
2018-01-22 05:00:00 11.4 6 Sur 38 Sur 0 -- -- 70
2018-01-22 04:00:00 11.6 5 Sur 36 Este 0 -- -- 68
2018-01-22 03:00:00 12 6 Sur 34 Sudoeste 0 -- -- 67
2018-01-22 02:00:00 12.4 8 Sur 43 Sudoeste 0 -- -- 64
2018-01-22 01:00:00 12.2 8 Sudeste 32 Sur 0 -- -- 67
2018-01-22 00:00:00 12.6 6 Sur 25 Sur 0 -- -- 67
2018-01-21 23:00:00 13 4 Sur 25 Sudeste 0 -- -- 63
2018-01-21 22:00:00 13.7 4 Sur 23 Sur 0 -- -- 61
2018-01-21 21:00:00 13.6 6 Sur 26 Sur 0 -- -- 62
2018-01-21 20:00:00 13.7 4 Sur 23 Sur 0 -- -- 61
2018-01-21 19:00:00 14.1 5 Este 26 Este 0 -- -- 59
2018-01-21 18:00:00 12.9 3 Nordeste 17 Este 0 -- -- 63
2018-01-21 17:00:00 12.2 0 Calma 11 Sur 0 -- -- 66
2018-01-21 16:00:00 13.9 2 Sur 18 Este 0 -- -- 60
2018-01-21 15:00:00 14.6 5 Sudeste 25 Sudeste 0 -- -- 57
2018-01-21 14:00:00 16.3 6 Sudeste 20 Este 0 -- -- 52
2018-01-21 13:00:00 16.3 5 Sur 22 Sur 0 -- -- 55
2018-01-21 12:00:00 15.8 6 Sudeste 19 Sudeste 0 -- -- 56
2018-01-21 11:00:00 14.8 5 Sudeste 24 Sudeste 0 -- -- 61
2018-01-21 10:00:00 13.6 5 Sur 28 Sudoeste 0 -- -- 68
2018-01-21 09:00:00 11.3 6 Sudeste 46 Sudeste 0 -- -- 76
2018-01-21 08:00:00 11.2 6 Sudeste 33 Sur 0 -- -- 76
2018-01-21 07:00:00 11.4 11 Sudeste 37 Sudoeste 0 -- -- 74
2018-01-21 06:00:00 11.5 10 Sudeste 43 Sudeste 0 -- -- 73
2018-01-21 05:00:00 11.7 10 Sudeste 40 Sudeste 0 -- -- 69
2018-01-21 04:00:00 11.7 7 Sur 50 Sudeste 0 -- -- 66
2018-01-21 03:00:00 11.9 9 Sudeste 36 Sudeste 0 -- -- 64
2018-01-21 02:00:00 12.1 8 Sudeste 52 Sur 0 -- -- 59
2018-01-21 01:00:00 12.5 8 Sur 51 Sur 0 -- -- 53
2018-01-21 00:00:00 12.6 10 Sudeste 46 Sudoeste 0 -- -- 53
2018-01-20 23:00:00 12.9 9 Sudeste 44 Sur 0 -- -- 45
2018-01-20 22:00:00 13 6 Sur 31 Sudeste 0 -- -- 40
2018-01-20 21:00:00 13.4 8 Sudeste 32 Sur 0 -- -- 34
2018-01-20 20:00:00 12.6 4 Sur 28 Sudeste 0 -- -- 32
2018-01-20 19:00:00 12.1 5 Sur 29 Sur 0 -- -- 33
2018-01-20 18:00:00 11.1 2 Sur 22 Sur 0 -- -- 33
2018-01-20 17:00:00 11.8 5 Sudeste 34 Sudoeste 0 -- -- 32
2018-01-20 16:00:00 11.8 5 Sur 21 Sur 0 -- -- 33
2018-01-20 15:00:00 12.3 5 Sur 23 Sur 0 -- -- 38
2018-01-20 14:00:00 11.7 4 Sur 20 Sudeste 0 -- -- 54
2018-01-20 13:00:00 12.1 5 Sudeste 25 Sur 0 -- -- 49
2018-01-20 12:00:00 9.5 3 Sur 13 Sudeste 0 -- -- 75
2018-01-20 11:00:00 9.8 0 Calma 6 Sur 0 -- -- 81
2018-01-20 10:00:00 8.6 0 Calma -- -- 0 -- -- 89
2018-01-20 09:00:00 4.3 0 Calma -- -- 0 -- -- 89
2018-01-20 08:00:00 2.7 0 Calma -- -- 0 -- -- 89
2018-01-20 07:00:00 3.7 0 Calma -- -- 0 -- -- 89
2018-01-20 06:00:00 4.9 0 Calma -- -- 0 -- -- 89
2018-01-20 05:00:00 5.1 0 Calma -- -- 0 -- -- 89
2018-01-20 04:00:00 6.3 0 Calma 3 Nordeste 0 -- -- 89
2018-01-20 03:00:00 6.1 0 Calma 7 Sudoeste 0 -- -- 89
2018-01-20 02:00:00 5.6 0 Calma 4 Este 0 -- -- 89
2018-01-20 01:00:00 5.3 0 Calma -- -- 0 -- -- 89
2018-01-20 00:00:00 5.1 0 Calma -- -- 0 -- -- 89
2018-01-19 23:00:00 4.1 0 Calma -- -- 0 -- -- 89
2018-01-19 22:00:00 2.6 0 Calma -- -- 0 -- -- 88
2018-01-19 21:00:00 3.3 0 Calma -- -- 0 -- -- 87
2018-01-19 20:00:00 4.3 0 Calma -- -- 0 -- -- 85
2018-01-19 19:00:00 6 0 Calma 4 Este 0 -- -- 81
2018-01-19 18:00:00 7.6 0 Calma 16 Sudoeste 0 -- -- 77
2018-01-19 17:00:00 9.5 0 Calma 12 Sudeste 0 -- -- 74
2018-01-19 16:00:00 10.2 0 Calma 15 Sudeste 0 -- -- 64
2018-01-19 15:00:00 10.4 3 Sudeste 22 Sudoeste 0 -- -- 60
2018-01-19 14:00:00 10.4 5 Sur 27 Sudeste 0 -- -- 65
2018-01-19 13:00:00 11.2 3 Sudeste 13 Sudeste 0 -- -- 69
2018-01-19 12:00:00 9.1 0 Calma 7 Sudeste 0 -- -- 89
2018-01-19 11:00:00 8.2 0 Calma 6 Oeste 0 -- -- 90
2018-01-19 10:00:00 3.4 0 Calma -- -- 0 -- -- 90
2018-01-19 09:00:00 2.1 0 Calma -- -- 0 -- -- 90
2018-01-19 08:00:00 1.9 0 Calma -- -- 0 -- -- 90
2018-01-19 07:00:00 2 0 Calma -- -- 0 -- -- 90
2018-01-19 06:00:00 2.7 0 Calma -- -- 0 -- -- 90
2018-01-19 05:00:00 2.5 0 Calma -- -- 0 -- -- 90
2018-01-19 04:00:00 2.5 0 Calma -- -- 0 -- -- 90
2018-01-19 03:00:00 2.4 0 Calma -- -- 0 -- -- 90
2018-01-19 02:00:00 2.3 0 Calma -- -- 0 -- -- 90
2018-01-19 01:00:00 3.1 0 Calma -- -- 0 -- -- 90
2018-01-19 00:00:00 2.2 0 Calma -- -- 0 -- -- 90
2018-01-18 23:00:00 2 0 Calma -- -- 0 -- -- 89
2018-01-18 22:00:00 2.2 0 Calma 2 Este 0 -- -- 89
2018-01-18 21:00:00 2.8 0 Calma 0 Calma 0 -- -- 88
2018-01-18 20:00:00 3.6 0 Calma 0 Calma 0 -- -- 87
2018-01-18 19:00:00 4.9 0 Calma 0 Calma 0 -- -- 85
2018-01-18 18:00:00 6.7 0 Calma 0 Calma 0 -- -- 83
2018-01-18 17:00:00 8.7 0 Calma 4 Sudoeste 0 -- -- 78
2018-01-18 16:00:00 10.7 0 Calma 13 Sudeste 0 -- -- 71
2018-01-18 15:00:00 10.8 2 Sur 12 Sur 0 -- -- 69
2018-01-18 14:00:00 10.2 0 Calma 6 Oeste 0 -- -- 77
2018-01-18 13:00:00 10.6 2 Oeste 8 Noroeste 0 -- -- 74
2018-01-18 12:00:00 10.7 0 Calma 7 Sudeste 0 -- -- 69
2018-01-18 11:00:00 9.7 5 Sur 15 Sudeste 0 -- -- 79
2018-01-18 10:00:00 9 0 Calma -- -- 0 -- -- 83
2018-01-18 09:00:00 5.7 0 Calma 10 Sudoeste 0 -- -- 86
2018-01-18 08:00:00 7 3 Sur 19 Sur 0 -- -- 86
2018-01-18 07:00:00 7.5 7 Sur 16 Sur 0 -- -- 89
2018-01-18 06:00:00 6.9 4 Sur 18 Sur 0 -- -- 89
2018-01-18 05:00:00 6.3 0 Calma 13 Sur 0 -- -- 88
2018-01-18 04:00:00 7 3 Sudeste 16 Sur 0 -- -- 87
2018-01-18 03:00:00 7 3 Sur 14 Sudoeste 0 -- -- 88
2018-01-18 02:00:00 7.7 6 Sur 16 Sur 0 -- -- 88
2018-01-18 01:00:00 7.7 5 Sur 14 Sur 0 -- -- 88
2018-01-18 00:00:00 7.8 6 Sudeste 16 Sudeste 0 -- -- 89
2018-01-17 23:00:00 7.9 6 Sudeste 15 Sur 0 -- -- 89
2018-01-17 22:00:00 8 6 Sudeste 15 Sudeste 0 -- -- 88
2018-01-17 21:00:00 8.2 7 Sudeste 18 Sudeste 0 -- -- 87
2018-01-17 20:00:00 8.5 3 Sudeste 12 Sudeste 0 -- -- 85
2018-01-17 19:00:00 6.2 0 Calma 15 Oeste 0 -- -- 79
2018-01-17 18:00:00 8 5 Oeste 15 Oeste 0 -- -- 73
2018-01-17 17:00:00 9.8 2 Sur 17 Sudeste 0 -- -- 64
2018-01-17 16:00:00 10.5 6 Sudeste 37 Sur 0 -- -- 57
2018-01-17 15:00:00 11.9 7 Sudeste 35 Sudeste 0 -- -- 54
2018-01-17 14:00:00 12.8 8 Sudeste 31 Sudeste 0 -- -- 55
2018-01-17 13:00:00 13.3 8 Sudeste 39 Sur 0 -- -- 54
2018-01-17 12:00:00 13 10 Sudeste 44 Sudeste 0 -- -- 53
2018-01-17 11:00:00 13.2 9 Sudeste 52 Sudeste 0 -- -- 53
2018-01-17 10:00:00 12.9 11 Sudeste 43 Sur 0 -- -- 54
2018-01-17 09:00:00 11.6 10 Sudeste 47 Sur 0 -- -- 58
2018-01-17 08:00:00 12.2 13 Sur 47 Sudoeste 0 -- -- 53
2018-01-17 07:00:00 12.4 9 Sur 55 Sudoeste 0 -- -- 50
2018-01-17 06:00:00 12.7 10 Sudeste 37 Sudeste 0 -- -- 49
2018-01-17 05:00:00 12.8 8 Sur 42 Sur 0 -- -- 49
2018-01-17 04:00:00 13 9 Sur 41 Sudoeste 0 -- -- 51
2018-01-17 03:00:00 12.9 9 Sur 44 Sudeste 0 -- -- 52
2018-01-17 02:00:00 13 5 Sudeste 26 Sudeste 0 -- -- 52
2018-01-17 01:00:00 12.9 4 Sudeste 26 Sur 0 -- -- 51
2018-01-17 00:00:00 13.9 7 Sur 32 Sudeste 0 -- -- 47
2018-01-16 23:00:00 13 5 Sur 36 Sur 0 -- -- 49
2018-01-16 22:00:00 12.3 6 Sudeste 25 Sur 0 -- -- 50
2018-01-16 21:00:00 12.5 6 Sudeste 35 Sudeste 0 -- -- 49
2018-01-16 20:00:00 12 5 Sur 25 Sur 0 -- -- 50
2018-01-16 19:00:00 11.6 3 Sur 24 Sudeste 0 -- -- 52
2018-01-16 18:00:00 11.9 5 Sur 19 Sur 0 -- -- 52
2018-01-16 17:00:00 10.7 0 Calma 12 Sudeste 0 -- -- 55
2018-01-16 16:00:00 13 4 Sur 16 Sudoeste 0 -- -- 43
2018-01-16 15:00:00 15.2 2 Sur 24 Sudeste 0 -- -- 38
2018-01-16 14:00:00 15.5 4 Sur 20 Sudeste 0 -- -- 33
2018-01-16 13:00:00 15.5 3 Sur 26 Sudoeste 0 -- -- 34
2018-01-16 12:00:00 15.1 4 Sur 20 Este 0 -- -- 36
2018-01-16 11:00:00 12.8 3 Sudeste 18 Sudoeste 0 -- -- 45
2018-01-16 10:00:00 8.4 0 Calma 6 Este 0 -- -- 76
2018-01-16 09:00:00 2.8 0 Calma 8 Este 0 -- -- 88
2018-01-16 08:00:00 2 0 Calma 8 Oeste 0 -- -- 90
2018-01-16 07:00:00 1.8 0 Calma 8 Oeste 0 -- -- 90
2018-01-16 06:00:00 1.7 0 Calma 5 Sudeste 0 -- -- 90
2018-01-16 05:00:00 1.4 0 Calma 7 Sudeste 0 -- -- 90
2018-01-16 04:00:00 1.1 0 Calma 12 Este 0 -- -- 90
2018-01-16 03:00:00 0.3 0 Calma 6 Este 0 -- -- 90
2018-01-16 02:00:00 0.3 0 Calma 6 Sudoeste 0 -- -- 90
2018-01-16 01:00:00 1.3 0 Calma 10 Sur 0 -- -- 90
2018-01-16 00:00:00 0 0 Calma 8 Este 0 -- -- 90
2018-01-15 23:00:00 -0.6 0 Calma -- -- 0 -- -- 89
2018-01-15 22:00:00 0.2 0 Calma 0 Calma 0 -- -- 89
2018-01-15 21:00:00 0.4 0 Calma -- -- 0 -- -- 89
2018-01-15 20:00:00 1.2 0 Calma 6 Sudeste 0 -- -- 87
2018-01-15 19:00:00 2.3 0 Calma 8 Sudeste 0 -- -- 86
2018-01-15 18:00:00 3.3 0 Calma -- -- 0 -- -- 83
2018-01-15 17:00:00 5.3 0 Calma 8 Sur 0 -- -- 77
2018-01-15 16:00:00 7.5 2 Sudoeste 13 Sur 0 -- -- 68
2018-01-15 15:00:00 8.5 0 Calma 12 Sudeste 0 -- -- 72
2018-01-15 14:00:00 8 3 Sur 18 Sudeste 0 -- -- 69
2018-01-15 13:00:00 8.5 0 Calma 10 Sudoeste 0 -- -- 69
2018-01-15 12:00:00 9.4 2 Sudoeste 10 Sudoeste 0 -- -- 60
2018-01-15 11:00:00 9.4 0 Calma 5 Oeste 0 -- -- 68
2018-01-15 10:00:00 5.1 0 Calma 4 Este 0 -- -- 90
2018-01-15 09:00:00 -0.1 0 Calma 4 Sudeste 0 -- -- 90
2018-01-15 08:00:00 -0.3 0 Calma -- -- 0 -- -- 90
2018-01-15 07:00:00 -0.1 0 Calma 3 Este 0 -- -- 90
2018-01-15 06:00:00 0.5 0 Calma 3 Nordeste 0 -- -- 89
2018-01-15 05:00:00 1.5 0 Calma 0 Calma 0 -- -- 89
2018-01-15 04:00:00 2.2 0 Calma 0 Calma 0 -- -- 89
2018-01-15 03:00:00 3.4 0 Calma 5 Sudeste 0 -- -- 89
2018-01-15 02:00:00 4.1 0 Calma 5 Sudeste 0 -- -- 89
2018-01-15 01:00:00 4.7 0 Calma 5 Sudeste 0 -- -- 89
2018-01-15 00:00:00 4.8 0 Calma 5 Sudeste 0 -- -- 89
2018-01-14 23:00:00 4.3 0 Calma 7 Sudoeste 0 -- -- 89
2018-01-14 22:00:00 2.9 0 Calma 5 Sudeste 0 -- -- 88
2018-01-14 21:00:00 3.3 0 Calma 5 Sudeste 0 -- -- 86
2018-01-14 20:00:00 3.5 0 Calma 12 Sudoeste 0 -- -- 83
2018-01-14 19:00:00 4.2 4 Sudoeste 13 Oeste 0 -- -- 79
2018-01-14 18:00:00 5.8 3 Sudoeste 13 Sur 0 -- -- 74
2018-01-14 17:00:00 7.1 3 Sudeste 15 Sudeste 0 -- -- 72
2018-01-14 16:00:00 7.8 3 Sur 18 Este 0 -- -- 67
2018-01-14 15:00:00 8 3 Sur 13 Sudeste 0 -- -- 65
2018-01-14 14:00:00 7.8 3 Sudeste 14 Sudeste 0 -- -- 77
2018-01-14 13:00:00 6.9 0 Calma 12 Sur 0 -- -- 82
2018-01-14 12:00:00 6.9 4 Sudeste 19 Sudeste 0 -- -- 81
2018-01-14 11:00:00 6.9 4 Sudeste 19 Sur 0 -- -- 80
2018-01-14 10:00:00 6.8 4 Sur 17 Sudeste 0 -- -- 82
2018-01-14 09:00:00 6.8 0 Calma 16 Sur 0 -- -- 84
2018-01-14 08:00:00 6.4 0 Calma 14 Sudoeste 0 -- -- 87
2018-01-14 07:00:00 7.1 6 Sudoeste 26 Oeste 0 -- -- 81
2018-01-14 06:00:00 7 0 Calma 12 Sudeste 0.4 -- -- 85
2018-01-14 05:00:00 7.6 3 Este 15 Sur 0 -- -- 79
2018-01-14 04:00:00 7.8 7 Sur 29 Sudeste 0 -- -- 74
2018-01-14 03:00:00 8 4 Este 35 Sur 0 -- -- 75
2018-01-14 02:00:00 8 10 Sur 31 Sur 0 -- -- 77
2018-01-14 01:00:00 7.8 12 Sur 41 Sudoeste 0 -- -- 76
2018-01-14 00:00:00 7.9 13 Sur 37 Sur 0 -- -- 76
2018-01-13 23:00:00 8.1 6 Sudeste 29 Sudeste 0 -- -- 75
2018-01-13 22:00:00 7.8 4 Este 17 Sudeste 0 -- -- 74
2018-01-13 21:00:00 7.7 5 Sur 28 Sudoeste 0 -- -- 74
2018-01-13 20:00:00 7.8 12 Sur 28 Sur 0 -- -- 73
2018-01-13 19:00:00 7.8 9 Sur 25 Sur 0 -- -- 74
2018-01-13 18:00:00 7.8 9 Sur 31 Sur 0 -- -- 74
2018-01-13 17:00:00 8.1 7 Sudoeste 26 Sur 0 -- -- 70
2018-01-13 16:00:00 8.6 11 Sur 28 Sur 0 -- -- 64
2018-01-13 15:00:00 9.3 3 Sur 19 Sur 0 -- -- 58
2018-01-13 14:00:00 9.7 3 Sur 14 Sur 0 -- -- 55
2018-01-13 13:00:00 9.4 6 Este 20 Sudeste 0 -- -- 54
2018-01-13 12:00:00 10.1 6 Sudeste 24 Sudeste 0 -- -- 52
2018-01-13 11:00:00 9.7 4 Sur 15 Sudoeste 0 -- -- 58
2018-01-13 10:00:00 5 4 Sur 12 Sur 0 -- -- 90
2018-01-13 09:00:00 0.6 0 Calma 8 Este 0 -- -- 90
2018-01-13 08:00:00 -2 0 Calma 5 Sudeste 0 -- -- 90
2018-01-13 07:00:00 -1.9 0 Calma -- -- 0 -- -- 91
2018-01-13 06:00:00 -1.8 0 Calma -- -- 0 -- -- 90
2018-01-13 05:00:00 -1.7 0 Calma -- -- 0 -- -- 90
2018-01-13 04:00:00 -1.4 0 Calma -- -- 0 -- -- 90
2018-01-13 03:00:00 -1 0 Calma -- -- 0 -- -- 90
2018-01-13 02:00:00 -0.8 0 Calma -- -- 0 -- -- 89
2018-01-13 01:00:00 -0.2 0 Calma -- -- 0 -- -- 89
2018-01-13 00:00:00 0.3 0 Calma -- -- 0 -- -- 89
2018-01-12 23:00:00 1.2 0 Calma -- -- 0 -- -- 88
2018-01-12 22:00:00 2.2 0 Calma 5 Este 0 -- -- 85
2018-01-12 21:00:00 3.4 0 Calma 7 Sur 0 -- -- 80
2018-01-12 20:00:00 4.9 2 Sur 13 Sur 0 -- -- 71
2018-01-12 19:00:00 5.7 4 Sudeste 18 Sudoeste 0 -- -- 68
2018-01-12 18:00:00 6.2 4 Sudeste 21 Sur 0 -- -- 73
2018-01-12 17:00:00 6.7 3 Sur 26 Sudeste 0 -- -- 67
2018-01-12 16:00:00 7.2 2 Sur 11 Sur 0 -- -- 65
2018-01-12 15:00:00 9.5 4 Sur 13 Sur 0 -- -- 70
2018-01-12 14:00:00 8.9 0 Calma 10 Sur 0 -- -- 70
2018-01-12 13:00:00 9.2 0 Calma 13 Oeste 0 -- -- 64
2018-01-12 12:00:00 12.4 2 Oeste 9 Sudoeste 0 -- -- 45
2018-01-12 11:00:00 11.2 2 Sudoeste 19 Sudoeste 0 -- -- 60
2018-01-12 10:00:00 9.5 2 Sur 11 Sur 0 -- -- 71
2018-01-12 09:00:00 3.8 0 Calma 7 Sur 0 -- -- 89
2018-01-12 08:00:00 2.7 0 Calma -- -- 0 -- -- 87
2018-01-12 07:00:00 3.9 0 Calma 6 Sudeste 0 -- -- 85
2018-01-12 06:00:00 5.6 0 Calma 9 Este 0 -- -- 83
2018-01-12 05:00:00 6.7 2 Sudeste 10 Sudeste 0 -- -- 80
2018-01-12 04:00:00 7.1 4 Sudeste 16 Sudeste 0 -- -- 78
2018-01-12 03:00:00 7.1 5 Sudeste 22 Sudeste 0 -- -- 73
2018-01-12 02:00:00 7.3 6 Sudeste 17 Sudoeste 0 -- -- 73
2018-01-12 01:00:00 7.3 4 Sudeste 21 Sudeste 0 -- -- 71
2018-01-12 00:00:00 7.4 3 Sudeste 16 Sudeste 0 -- -- 70
2018-01-11 23:00:00 7.4 3 Sudeste 19 Sudeste 0 -- -- 66
2018-01-11 22:00:00 7.5 5 Sudeste 17 Sur 0 -- -- 66
2018-01-11 21:00:00 7 4 Sudeste 18 Sudeste 0 -- -- 68
2018-01-11 20:00:00 7.4 0 Calma 19 Sudoeste 0 -- -- 64
2018-01-11 19:00:00 7.3 6 Sur 27 Sudeste 0 -- -- 62
2018-01-11 18:00:00 7 5 Sur 27 Sur 0 -- -- 67
2018-01-11 17:00:00 6.9 8 Sudeste 30 Sudeste 0 -- -- 66
2018-01-11 16:00:00 7.1 6 Sur 32 Sudeste 0 -- -- 65
2018-01-11 15:00:00 6.8 6 Sudeste 27 Sudeste 0 -- -- 68
2018-01-11 14:00:00 7.1 4 Sudeste 35 Sudeste 0 -- -- 67
2018-01-11 13:00:00 7 5 Sudeste 36 Sur 0 -- -- 63
2018-01-11 12:00:00 6.6 8 Sudeste 29 Sudeste 0.3 -- -- 65
2018-01-11 11:00:00 6.7 8 Sudeste 35 Sudeste 0 -- -- 65
2018-01-11 10:00:00 6.7 8 Sur 35 Sudeste 0 -- -- 64
2018-01-11 09:00:00 6.4 6 Sudeste 30 Este 0 -- -- 62
2018-01-11 08:00:00 6.6 7 Sudeste 36 Sudeste 0 -- -- 64
2018-01-11 07:00:00 6.7 8 Sur 32 Este 0 -- -- 64
2018-01-11 06:00:00 6.8 9 Sudeste 45 Sur 0 -- -- 67
2018-01-11 05:00:00 7.4 7 Sudeste 33 Sudeste 0 -- -- 71
2018-01-11 04:00:00 7.6 6 Sur 32 Sudeste 0 -- -- 73
2018-01-11 03:00:00 8.3 9 Sudeste 31 Sudeste 0.7 -- -- 85
2018-01-11 02:00:00 7.8 0 Calma 28 Oeste 1.1 -- -- 82
2018-01-11 01:00:00 4.4 0 Calma 12 Sur 0 -- -- 89
2018-01-11 00:00:00 3.8 0 Calma 8 Sudeste 0 -- -- 89
2018-01-10 23:00:00 4 0 Calma 8 Este 0 -- -- 89
2018-01-10 22:00:00 5 0 Calma 6 Este 0 -- -- 89
2018-01-10 21:00:00 5.1 0 Calma 4 Nordeste 0 -- -- 88
2018-01-10 20:00:00 5.2 0 Calma 7 Sudeste 0 -- -- 87
2018-01-10 19:00:00 7.4 0 Calma 12 Sudeste 0 -- -- 86
2018-01-10 18:00:00 8.2 2 Sur 14 Sudeste 0 -- -- 86
2018-01-10 17:00:00 8.4 3 Sudeste 15 Sudeste 0 -- -- 85
2018-01-10 16:00:00 8.7 2 Sur 9 Sur 0 -- -- 85
2018-01-10 15:00:00 9.3 3 Sur 11 Sudeste 0 -- -- 87
2018-01-10 14:00:00 9.1 0 Calma 10 Sudoeste 0 -- -- 85
2018-01-10 13:00:00 9.9 2 Sudeste 12 Sur 0 -- -- 76
2018-01-10 12:00:00 -- 0 Calma 18 Sur 0.1 -- -- --
2018-01-10 11:00:00 9.4 0 Calma 17 Sudoeste 0 -- -- 77
2018-01-10 10:00:00 8.8 0 Calma 12 Sudeste 0 -- -- 77
2018-01-10 09:00:00 8.6 2 Sudeste 13 Sudeste 0 -- -- 79
2018-01-10 08:00:00 8.8 3 Nordeste 13 Este 0 -- -- 75
2018-01-10 07:00:00 8.4 2 Este 15 Este 0 -- -- 66
2018-01-10 06:00:00 8.7 0 Calma 26 Sudoeste 0 -- -- 54
2018-01-10 05:00:00 9.3 8 Oeste 25 Sudoeste 0 -- -- 48
2018-01-10 04:00:00 8.6 0 Calma 29 Sudoeste 0 -- -- 51
2018-01-10 03:00:00 9.1 6 Sudoeste 30 Sur 0 -- -- 44
2018-01-10 02:00:00 9.2 3 Sudoeste 37 Sur 0 -- -- 37
2018-01-10 01:00:00 8.8 2 Norte 46 Sudoeste 0 -- -- 42
2018-01-10 00:00:00 9.4 12 Oeste 53 Sudoeste 0 -- -- 40
2018-01-09 23:00:00 7.7 7 Oeste 28 Oeste 0 -- -- 61
2018-01-09 22:00:00 7.9 4 Oeste 20 Sudeste 0 -- -- 59
2018-01-09 21:00:00 8.1 6 Oeste 29 Oeste 0 -- -- 64
2018-01-09 20:00:00 7.8 2 Oeste 31 Oeste 0 -- -- 63
2018-01-09 19:00:00 8.6 7 Oeste 32 Oeste 0 -- -- 52
2018-01-09 18:00:00 8.8 15 Oeste 39 Oeste 0 -- -- 56
2018-01-09 17:00:00 7.1 0 Calma 11 Sudoeste 0 -- -- 73
2018-01-09 16:00:00 9.2 0 Calma 24 Oeste 0 -- -- 55
2018-01-09 15:00:00 11.5 5 Sudoeste 18 Sur 0 -- -- 47
2018-01-09 14:00:00 11.9 0 Calma 18 Nordeste 0 -- -- 49
2018-01-09 13:00:00 11.5 2 Sudeste 14 Este 0 -- -- 52
2018-01-09 12:00:00 10.8 8 Nordeste 20 Este 0 -- -- 53
2018-01-09 11:00:00 11.5 0 Calma 30 Sur 0 -- -- 56
2018-01-09 10:00:00 10 4 Sur 26 Oeste 0 -- -- 60
2018-01-09 09:00:00 7 9 Oeste 25 Sudoeste 0 -- -- 78
2018-01-09 08:00:00 4.2 0 Calma 15 Este 0 -- -- 87
2018-01-09 07:00:00 4.5 2 Sudoeste 18 Sudoeste 0 -- -- 82
2018-01-09 06:00:00 6.5 6 Sur 34 Sur 0 -- -- 74
2018-01-09 05:00:00 3.2 0 Calma 16 Sudoeste 0 -- -- 90
2018-01-09 04:00:00 1.6 0 Calma -- -- 0 -- -- 89
2018-01-09 03:00:00 2.4 0 Calma 4 Este 0 -- -- 89
2018-01-09 02:00:00 3.4 0 Calma 5 Sur 0 -- -- 89
2018-01-09 01:00:00 3.9 0 Calma 7 Este 0 -- -- 89
2018-01-09 00:00:00 4.1 0 Calma 3 Nordeste 0 -- -- 89
2018-01-08 23:00:00 4.3 0 Calma 6 Sur 0 -- -- 87
2018-01-08 22:00:00 4.9 0 Calma 14 Sur 0 -- -- 85
2018-01-08 21:00:00 5.1 0 Calma 14 Sudoeste 0 -- -- 86
2018-01-08 20:00:00 5.3 0 Calma 10 Sudeste 0 -- -- 85
2018-01-08 19:00:00 6.2 3 Sudeste 19 Sur 0 -- -- 84
2018-01-08 18:00:00 6.3 2 Sur 26 Sur 0 -- -- 86
2018-01-08 17:00:00 6.9 4 Sudeste 35 Sur 0 -- -- 88
2018-01-08 16:00:00 7.1 4 Sudeste 25 Este 4.1 -- -- 88
2018-01-08 15:00:00 7.1 6 Sudeste 28 Sudeste 0.7 -- -- 89
2018-01-08 14:00:00 7.2 6 Sudeste 21 Nordeste 1.6 -- -- 90
2018-01-08 13:00:00 7 3 Sur 16 Sudeste 1.1 -- -- 90
2018-01-08 12:00:00 6.5 2 Sur 10 Sur 0 -- -- 90
2018-01-08 11:00:00 5.9 0 Calma 8 Sudoeste 0 -- -- 90
2018-01-08 10:00:00 5.4 0 Calma -- -- 0.4 -- -- 90
2018-01-08 09:00:00 4.7 0 Calma -- -- 0.1 -- -- 90
2018-01-08 08:00:00 4.1 0 Calma 9 Norte 1.3 -- -- 90
2018-01-08 07:00:00 2.8 0 Calma 10 Noroeste 0.1 -- -- 90
2018-01-08 06:00:00 1.2 0 Calma -- -- 0 -- -- 90
2018-01-08 05:00:00 0.4 0 Calma -- -- 0 -- -- 90
2018-01-08 04:00:00 0 0 Calma -- -- 0 -- -- 90
2018-01-08 03:00:00 0.1 0 Calma -- -- 0 -- -- 90
2018-01-08 02:00:00 0.7 0 Calma -- -- 0 -- -- 90
2018-01-08 01:00:00 1.5 0 Calma 6 Este 0 -- -- 91
2018-01-08 00:00:00 1.6 0 Calma 6 Sudeste 0 -- -- 90
2018-01-07 23:00:00 1.4 0 Calma -- -- 0 -- -- 90
2018-01-07 22:00:00 1.9 0 Calma 5 Sudeste 0 -- -- 90
2018-01-07 21:00:00 2.4 0 Calma 3 Este 0 -- -- 90
2018-01-07 20:00:00 3.3 0 Calma 5 Sudeste 0 -- -- 90
2018-01-07 19:00:00 4.2 0 Calma 3 Sudeste 0 -- -- 89
2018-01-07 18:00:00 5.6 0 Calma 5 Sudoeste 0 -- -- 89
2018-01-07 17:00:00 7.3 2 Sudoeste 9 Sudoeste 0 -- -- 89
2018-01-07 16:00:00 8.3 0 Calma 7 Este 0.2 -- -- 89
2018-01-07 15:00:00 7.6 0 Calma 12 Sur 0 -- -- 89
2018-01-07 14:00:00 6.6 0 Calma 10 Este 0 -- -- 89
2018-01-07 13:00:00 6.6 0 Calma 19 Sur 0.2 -- -- 89
2018-01-07 12:00:00 6.4 5 Sudeste 23 Sur 4.4 -- -- 89
2018-01-07 11:00:00 6.4 0 Calma 27 Sur 4.3 -- -- 87
2018-01-07 10:00:00 6.6 4 Este 17 Este 2.4 -- -- 85
2018-01-07 09:00:00 7.3 4 Este 33 Sudeste 1.6 -- -- 84
2018-01-07 08:00:00 8.8 6 Sur 29 Sur 0 -- -- 75
2018-01-07 07:00:00 8.8 6 Sudeste 23 Este 0 -- -- 76
2018-01-07 06:00:00 8.8 5 Sudeste 37 Sudeste 0 -- -- 77
2018-01-07 05:00:00 9.2 10 Sur 41 Sudeste 0 -- -- 78
2018-01-07 04:00:00 9.5 13 Sur 44 Sur 0 -- -- 77
2018-01-07 03:00:00 9.5 9 Sudeste 53 Sur 0 -- -- 74
2018-01-07 02:00:00 10 16 Sur 45 Sur 0 -- -- 71
2018-01-07 01:00:00 10.5 6 Este 40 Sur 0 -- -- 71
2018-01-07 00:00:00 11.1 6 Este 25 Sudoeste 0 -- -- 71
2018-01-06 23:00:00 11.4 3 Nordeste 23 Sudeste 0 -- -- 60
2018-01-06 22:00:00 12.1 4 Este 23 Sudoeste 0 -- -- 48
2018-01-06 21:00:00 12.1 7 Este 37 Sur 0 -- -- 51
2018-01-06 20:00:00 12.1 12 Sur 38 Sudoeste 0 -- -- 59
2018-01-06 19:00:00 11.9 5 Sur 27 Sur 0 -- -- 61
2018-01-06 18:00:00 11.7 3 Sudeste 23 Sur 0 -- -- 70
2018-01-06 17:00:00 12.2 4 Este 25 Sur 0 -- -- 68
2018-01-06 16:00:00 12 7 Este 30 Este 0 -- -- 85
2018-01-06 15:00:00 11.9 8 Este 30 Este 0 -- -- 84
2018-01-06 14:00:00 12.5 8 Este 33 Sudoeste 0 -- -- 71
2018-01-06 13:00:00 11.7 9 Sudeste 31 Sudeste 0 -- -- 80
2018-01-06 12:00:00 11.9 10 Sur 31 Sur 0 -- -- 76
2018-01-06 11:00:00 11.4 11 Sur 32 Sudoeste 0 -- -- 77
2018-01-06 10:00:00 11.6 8 Sudeste 34 Sur 0 -- -- 69
2018-01-06 09:00:00 11.4 9 Sur 31 Sur 0 -- -- 51
2018-01-06 08:00:00 8.2 2 Sur 32 Sur 0 -- -- 77
2018-01-06 07:00:00 9.2 6 Sudeste 30 Sur 0 -- -- 82
2018-01-06 06:00:00 7.1 0 Calma 18 Este 0 -- -- 86
2018-01-06 05:00:00 5.3 0 Calma 10 Este 0 -- -- 87
2018-01-06 04:00:00 4.6 0 Calma 8 Este 0 -- -- 87
2018-01-06 03:00:00 5.4 0 Calma 12 Sudoeste 0 -- -- 86
2018-01-06 02:00:00 5.2 0 Calma 11 Oeste 0 -- -- 85
2018-01-06 01:00:00 5.6 0 Calma 10 Este 0 -- -- 76
2018-01-06 00:00:00 8.3 3 Este 12 Este 0 -- -- 75
2018-01-05 23:00:00 5.3 2 Este 10 Este 0 -- -- 85
2018-01-05 22:00:00 4.4 0 Calma 9 Este 0 -- -- 84
2018-01-05 21:00:00 4.1 0 Calma 5 Sudeste 0 -- -- 83
2018-01-05 20:00:00 5 0 Calma 7 Sur 0 -- -- 80
2018-01-05 19:00:00 6.1 0 Calma 6 Sudeste 0 -- -- 77
2018-01-05 18:00:00 7.5 0 Calma 7 Sudoeste 0 -- -- 70
2018-01-05 17:00:00 10.3 0 Calma 18 Oeste 0 -- -- 55
2018-01-05 16:00:00 12 2 Oeste 32 Noroeste 0 -- -- 46
2018-01-05 15:00:00 15.8 0 Calma 30 Sudoeste 0 -- -- 36
2018-01-05 14:00:00 16.7 8 Sudoeste 38 Oeste 0 -- -- 32
2018-01-05 13:00:00 16 5 Sur 34 Sudoeste 0 -- -- 38
2018-01-05 12:00:00 15.5 0 Calma 12 Sudoeste 0 -- -- 49
2018-01-05 11:00:00 13.8 0 Calma 6 Sudoeste 0 -- -- 58
2018-01-05 10:00:00 9.2 0 Calma -- -- 0 -- -- 87
2018-01-05 09:00:00 3.1 0 Calma 0 Calma 0 -- -- 89
2018-01-05 08:00:00 3.4 0 Calma 0 Calma 0 -- -- 89
2018-01-05 07:00:00 4.1 0 Calma 8 Noroeste 0 -- -- 89
2018-01-05 06:00:00 3.9 0 Calma 6 Sudoeste 0 -- -- 89
2018-01-05 05:00:00 4.4 0 Calma 6 Sudoeste 0 -- -- 88
2018-01-05 04:00:00 4.6 0 Calma -- -- 0 -- -- 86
2018-01-05 03:00:00 5.7 0 Calma 3 Sur 0 -- -- 83
2018-01-05 02:00:00 7.9 0 Calma 12 Este 0 -- -- 77
2018-01-05 01:00:00 10.6 2 Este 15 Sudeste 0 -- -- 72
2018-01-05 00:00:00 5.1 0 Calma 6 Este 0 -- -- 87
2018-01-04 23:00:00 5.9 0 Calma 5 Este 0 -- -- 86
2018-01-04 22:00:00 6.6 0 Calma 10 Este 0 -- -- 86
2018-01-04 21:00:00 7 0 Calma 6 Sudoeste 0 -- -- 85
2018-01-04 20:00:00 7.5 0 Calma 6 Sudeste 0 -- -- 83
2018-01-04 19:00:00 8.4 0 Calma 8 Sudeste 0 -- -- 80
2018-01-04 18:00:00 10.2 0 Calma 10 Sudeste 0 -- -- 75
2018-01-04 17:00:00 11.2 0 Calma 5 Oeste 0 -- -- 72
2018-01-04 16:00:00 13.2 0 Calma 12 Sudoeste 0 -- -- 63
2018-01-04 15:00:00 16.6 3 Sudoeste 17 Sudeste 0 -- -- 53
2018-01-04 14:00:00 17.1 5 Sur 23 Sur 0 -- -- 51
2018-01-04 13:00:00 17.4 5 Sudeste 26 Sudeste 0 -- -- 50
2018-01-04 12:00:00 17.6 6 Sur 34 Sur 0 -- -- 49
2018-01-04 11:00:00 17.8 7 Sudeste 50 Sudoeste 0 -- -- 48
2018-01-04 10:00:00 16.1 9 Sudeste 34 Sudeste 0 -- -- 52
2018-01-04 09:00:00 15.2 9 Sudeste 35 Sudeste 0 -- -- 54
2018-01-04 08:00:00 15.1 8 Sudeste 36 Sudeste 0 -- -- 54
2018-01-04 07:00:00 15.2 9 Sudeste 36 Sudeste 0 -- -- 55
2018-01-04 06:00:00 15.4 8 Sudeste 46 Este 0 -- -- 53
2018-01-04 05:00:00 15.5 7 Sudeste 32 Sudeste 0 -- -- 52
2018-01-04 04:00:00 15.8 6 Sudeste 31 Sur 0 -- -- 51
2018-01-04 03:00:00 15.7 7 Sur 31 Sudeste 0 -- -- 52
2018-01-04 02:00:00 15.7 4 Sur 26 Sudeste 0 -- -- 53
2018-01-04 01:00:00 15.5 4 Sur 27 Sur 0 -- -- 53
2018-01-04 00:00:00 15.5 4 Sur 24 Sudeste 0 -- -- 54
2018-01-03 23:00:00 15.5 3 Sudeste 22 Sur 0 -- -- 54
2018-01-03 22:00:00 15.5 4 Sur 22 Sudeste 0 -- -- 54
2018-01-03 21:00:00 15.7 2 Sudeste 28 Sur 0 -- -- 52
2018-01-03 20:00:00 16.1 9 Sudeste 40 Sudeste 0 -- -- 51
2018-01-03 19:00:00 16.3 6 Sur 48 Sur 0 -- -- 49
2018-01-03 18:00:00 16.4 9 Sudeste 37 Sur 0 -- -- 48
2018-01-03 17:00:00 16.2 7 Sudeste 29 Sudeste 0 -- -- 49
2018-01-03 16:00:00 16.4 6 Sudeste 38 Sur 0 -- -- 50
2018-01-03 15:00:00 17.3 8 Sudeste 37 Sudeste 0 -- -- 47
2018-01-03 14:00:00 18.4 9 Sudeste 33 Sur 0 -- -- 45
2018-01-03 13:00:00 16.5 10 Sudeste 36 Sudeste 0 -- -- 49
2018-01-03 12:00:00 16.1 6 Sur 33 Sudoeste 0 -- -- 52
2018-01-03 11:00:00 15.9 6 Sur 36 Sudeste 0 -- -- 52
2018-01-03 10:00:00 15.2 6 Sudeste 40 Este 0 -- -- 54
2018-01-03 09:00:00 14.3 7 Sudeste 37 Sur 0 -- -- 56
2018-01-03 08:00:00 14.6 6 Sudeste 33 Sur 0 -- -- 54
2018-01-03 07:00:00 13.9 8 Sur 38 Sudeste 0 -- -- 56
2018-01-03 06:00:00 13.6 7 Sur 40 Sudoeste 0 -- -- 58
2018-01-03 05:00:00 13.8 8 Sur 37 Sudeste 0 -- -- 58
2018-01-03 04:00:00 13.6 7 Sur 28 Sur 0 -- -- 59
2018-01-03 03:00:00 13.3 7 Sudeste 28 Sudoeste 0 -- -- 59
2018-01-03 02:00:00 13.4 7 Sudeste 28 Sudeste 0 -- -- 60
2018-01-03 01:00:00 13.7 6 Sudeste 33 Sudeste 0 -- -- 57
2018-01-03 00:00:00 13.4 4 Sudeste 24 Sur 0 -- -- 55
2018-01-02 23:00:00 14 5 Sur 29 Sudoeste 0 -- -- 52
2018-01-02 22:00:00 13.3 3 Sur 22 Sur 0 -- -- 52
2018-01-02 21:00:00 12.4 0 Calma 22 Sur 0 -- -- 54
2018-01-02 20:00:00 13.3 5 Sur 28 Sur 0 -- -- 50
2018-01-02 19:00:00 13.3 6 Sur 37 Sudoeste 0 -- -- 50
2018-01-02 18:00:00 12.8 5 Sur 28 Sur 0 -- -- 50
2018-01-02 17:00:00 13 4 Sur 28 Oeste 0 -- -- 50
2018-01-02 16:00:00 13.1 4 Sur 25 Sur 0 -- -- 48
2018-01-02 15:00:00 14.4 6 Sur 23 Sur 0 -- -- 47
2018-01-02 14:00:00 13.8 4 Sur 26 Sudeste 0 -- -- 52
2018-01-02 13:00:00 12.9 6 Sudeste 33 Sudeste 0 -- -- 55
2018-01-02 12:00:00 12.4 5 Sudeste 19 Sur 0 -- -- 63
2018-01-02 11:00:00 12.9 4 Sur 17 Sudeste 0 -- -- 63
2018-01-02 10:00:00 12.4 4 Sur 22 Sudoeste 0 -- -- 69
2018-01-02 09:00:00 10.5 2 Sudeste 16 Sudoeste 0 -- -- 77
2018-01-02 08:00:00 10.6 3 Sudeste 18 Sudeste 0 -- -- 70
2018-01-02 07:00:00 10.3 4 Sudeste 25 Sur 0 -- -- 68
2018-01-02 06:00:00 10.9 8 Sudeste 33 Sudeste 0 -- -- 62
2018-01-02 05:00:00 11.1 9 Sudeste 32 Sur 0 -- -- 60
2018-01-02 04:00:00 11.5 9 Sur 47 Sudeste 0 -- -- 58
2018-01-02 03:00:00 11.7 8 Sur 49 Sudeste 0 -- -- 55
2018-01-02 02:00:00 11.2 9 Sudeste 46 Este 0 -- -- 57
2018-01-02 01:00:00 11.8 11 Sudeste 56 Sur 0 -- -- 49
2018-01-02 00:00:00 12 12 Sudeste 50 Sur 0 -- -- 47
2018-01-01 23:00:00 12.5 11 Sudeste 41 Sudeste 0 -- -- 42
2018-01-01 22:00:00 11.4 6 Sudeste 34 Oeste 0 -- -- 47
2018-01-01 21:00:00 11.3 4 Sudoeste 34 Norte 0 -- -- 42
2018-01-01 20:00:00 11.3 4 Sur 31 Sudoeste 0 -- -- 36
2018-01-01 19:00:00 11.4 6 Sur 39 Sur 0 -- -- 36
2018-01-01 18:00:00 11.3 5 Sur 36 Sur 0 -- -- 31
2018-01-01 17:00:00 12.3 5 Sudoeste 45 Nordeste 0 -- -- 20
2018-01-01 16:00:00 12.3 9 Sudoeste 30 Oeste 0 -- -- 21
2018-01-01 15:00:00 11.5 4 Sur 14 Sudoeste 0 -- -- 38
2018-01-01 14:00:00 13.3 3 Sur 21 Sudeste 0 -- -- 43
2018-01-01 13:00:00 11.7 7 Sudeste 32 Sudoeste 0 -- -- 48
2018-01-01 12:00:00 11.2 7 Sur 36 Sudeste 0 -- -- 49
2018-01-01 11:00:00 10.4 9 Sudeste 34 Sur 0 -- -- 52
2018-01-01 10:00:00 9.9 6 Sudeste 30 Sur 0 -- -- 53
2018-01-01 09:00:00 8.4 6 Sudeste 37 Sudeste 0 -- -- 60
2018-01-01 08:00:00 8.5 8 Sudeste 39 Sur 0 -- -- 60
2018-01-01 07:00:00 8.5 9 Sudeste 41 Sur 0 -- -- 60
2018-01-01 06:00:00 8.4 12 Sudeste 51 Sudeste 0 -- -- 59
2018-01-01 05:00:00 8.6 10 Sur 53 Sur 0 -- -- 55
2018-01-01 04:00:00 8.9 11 Sudeste 44 Sudeste 0 -- -- 55
2018-01-01 03:00:00 9.1 7 Sur 45 Sur 0 -- -- 63
2018-01-01 02:00:00 10 12 Sudeste 40 Sur 0 -- -- 61
2018-01-01 01:00:00 11.4 8 Sur 39 Sur 0 -- -- 62
2018-01-01 00:00:00 12 5 Sur 27 Sudoeste 0 -- -- 51
2017-12-31 23:00:00 11.9 7 Sur 36 Este 0 -- -- 54
2017-12-31 22:00:00 11.6 6 Sur 29 Sur 0 -- -- 65
2017-12-31 21:00:00 12.6 0 Calma 36 Norte 0 -- -- 55
2017-12-31 20:00:00 13.4 0 Calma 36 Sudoeste 0 -- -- 49
2017-12-31 19:00:00 12.2 4 Sudoeste 26 Sudoeste 0 -- -- 52
2017-12-31 18:00:00 9.9 0 Calma 12 Este 0 -- -- 64
2017-12-31 17:00:00 13.1 0 Calma 16 Sudoeste 0 -- -- 46
2017-12-31 16:00:00 16 5 Oeste 24 Oeste 0 -- -- 36
2017-12-31 15:00:00 15.2 0 Calma 9 Sur 0 -- -- 58
2017-12-31 14:00:00 17.4 0 Calma 10 Sudoeste 0 -- -- 55
2017-12-31 13:00:00 16.9 0 Calma 9 Sudoeste 0 -- -- 52
2017-12-31 12:00:00 15.9 0 Calma 18 Este 0 -- -- 51
2017-12-31 11:00:00 13.6 5 Este 10 Este 0 -- -- 85
2017-12-31 10:00:00 8.9 0 Calma 3 Sur 0 -- -- 90
2017-12-31 09:00:00 4.1 0 Calma -- -- 0 -- -- 90
2017-12-31 08:00:00 2.3 0 Calma 0 Calma 0 -- -- 90
2017-12-31 07:00:00 2.1 0 Calma 4 Nordeste 0 -- -- 90
2017-12-31 06:00:00 2.1 0 Calma -- -- 0 -- -- 90
2017-12-31 05:00:00 2.3 0 Calma -- -- 0 -- -- 90
2017-12-31 04:00:00 2.5 0 Calma -- -- 0 -- -- 90
2017-12-31 03:00:00 2.7 0 Calma -- -- 0 -- -- 89
2017-12-31 02:00:00 2.9 0 Calma -- -- 0 -- -- 89
2017-12-31 01:00:00 3.2 0 Calma -- -- 0 -- -- 89